Time;durP1;ratioP1;P1;durP2;ratioP2;P2;SDS_P1;SDS_P2;PMS_P1;PMS_P2;Temp;Humidity;BMP_temperature;BMP_pressure;BME280_temperature;BME280_humidity;BME280_pressure;Samples;Min_cycle;Max_cycle;Signal;HPM_P1;HPM_P2
2022/05/16 00:01:44;;;;;;;8.45;4.78;;;13.20;99.90;;;;;;7402745;19;20031;-79
2022/05/16 00:04:13;;;;;;;10.25;4.88;;;13.10;99.90;;;;;;7398153;19;20046;-79
2022/05/16 00:06:42;;;;;;;8.75;4.35;;;13.20;99.90;;;;;;7402247;19;20018;-79
2022/05/16 00:09:11;;;;;;;10.55;5.30;;;13.20;99.90;;;;;;7399309;19;20015;-79
2022/05/16 00:11:41;;;;;;;8.60;4.53;;;13.10;99.90;;;;;;7399716;19;20029;-79
2022/05/16 00:14:10;;;;;;;8.60;5.03;;;13.20;99.90;;;;;;7396835;19;20022;-79
2022/05/16 00:16:39;;;;;;;8.05;4.32;;;12.90;99.90;;;;;;7399494;19;20021;-79
2022/05/16 00:19:11;;;;;;;11.20;4.32;;;13.20;99.90;;;;;;7401097;19;20353;-79
2022/05/16 00:21:40;;;;;;;7.72;4.30;;;13.40;99.90;;;;;;7396493;19;20014;-78
2022/05/16 00:24:09;;;;;;;8.30;4.47;;;13.10;99.90;;;;;;7397849;19;20066;-79
2022/05/16 00:26:39;;;;;;;8.70;4.15;;;13.20;99.90;;;;;;7398047;19;20421;-79
2022/05/16 00:29:08;;;;;;;9.10;4.07;;;13.10;99.90;;;;;;7401171;19;20026;-78
2022/05/16 00:31:38;;;;;;;8.10;4.13;;;13.10;99.90;;;;;;7398833;19;20374;-79
2022/05/16 00:34:09;;;;;;;7.45;4.20;;;13.10;99.90;;;;;;7398153;19;20014;-78
2022/05/16 00:36:38;;;;;;;9.23;4.22;;;13.10;99.90;;;;;;7402864;19;20003;-78
2022/05/16 00:39:07;;;;;;;6.85;3.60;;;13.20;99.90;;;;;;7400804;19;20024;-79
2022/05/16 00:41:36;;;;;;;6.22;3.75;;;13.10;99.90;;;;;;7396689;19;20042;-79
2022/05/16 00:44:05;;;;;;;5.65;3.78;;;13.10;99.90;;;;;;7399521;19;20059;-79
2022/05/16 00:46:35;;;;;;;7.25;3.53;;;13.20;99.90;;;;;;7396134;19;20125;-80
2022/05/16 00:49:07;;;;;;;6.88;3.08;;;13.10;99.90;;;;;;7396909;19;20026;-79
2022/05/16 00:51:44;;;;;;;8.20;3.53;;;13.10;99.90;;;;;;7395196;19;20034;-77
2022/05/16 00:54:18;;;;;;;6.60;3.40;;;13.30;99.90;;;;;;7397034;19;20074;-78
2022/05/16 00:56:50;;;;;;;5.30;3.25;;;12.90;99.90;;;;;;7401872;19;20015;-78
2022/05/16 00:59:19;;;;;;;9.10;3.65;;;13.20;99.90;;;;;;7397470;19;20006;-78
2022/05/16 01:07:14;;;;;;;5.32;2.90;;;13.20;99.90;;;;;;7400947;19;20019;-78
2022/05/16 01:09:43;;;;;;;5.35;3.25;;;13.00;99.90;;;;;;7401806;19;20038;-79
2022/05/16 01:12:13;;;;;;;7.55;3.33;;;12.90;99.90;;;;;;7395244;19;20011;-79
2022/05/16 01:14:49;;;;;;;8.25;3.42;;;13.00;99.90;;;;;;7396089;19;20018;-79
2022/05/16 01:17:19;;;;;;;5.97;3.10;;;13.00;99.90;;;;;;7396940;19;20018;-79
2022/05/16 01:19:48;;;;;;;5.53;2.88;;;13.00;99.90;;;;;;7397097;19;20081;-79
2022/05/16 01:22:31;;;;;;;7.30;2.97;;;12.90;99.90;;;;;;7396063;19;20014;-79
2022/05/16 01:25:04;;;;;;;5.60;3.13;;;12.70;99.90;;;;;;7396508;19;20014;-79
2022/05/16 01:27:49;;;;;;;6.50;3.22;;;13.10;99.90;;;;;;7396239;19;20031;-79
2022/05/16 01:30:22;;;;;;;7.07;3.00;;;12.90;99.90;;;;;;7395239;19;20492;-79
2022/05/16 01:32:51;;;;;;;5.40;2.90;;;12.90;99.90;;;;;;7395937;19;20029;-79
2022/05/16 01:35:23;;;;;;;5.97;2.85;;;12.90;99.90;;;;;;7397219;19;20035;-80
2022/05/16 01:40:37;;;;;;;6.13;2.80;;;12.90;99.90;;;;;;7397335;19;20011;-80
2022/05/16 01:43:07;;;;;;;5.95;2.85;;;12.80;99.90;;;;;;7398190;19;20066;-79
2022/05/16 01:45:37;;;;;;;4.32;2.85;;;12.80;99.90;;;;;;7395530;19;20026;-79
2022/05/16 01:48:07;;;;;;;5.38;2.80;;;12.70;99.90;;;;;;7397673;19;20014;-79
2022/05/16 01:50:36;;;;;;;4.60;2.70;;;12.70;99.90;;;;;;7397061;19;20039;-79
2022/05/16 01:53:07;;;;;;;7.53;3.10;;;12.80;99.90;;;;;;7398885;19;20060;-79
2022/05/16 01:55:36;;;;;;;4.28;2.50;;;12.60;99.90;;;;;;7394541;19;20010;-79
2022/05/16 01:58:06;;;;;;;4.85;2.50;;;12.60;99.90;;;;;;7396152;19;20430;-79
2022/05/16 02:00:36;;;;;;;4.82;2.70;;;12.60;99.90;;;;;;7394031;19;20098;-79
2022/05/16 02:03:07;;;;;;;4.38;2.60;;;12.50;99.90;;;;;;7395338;19;20073;-79
2022/05/16 02:05:37;;;;;;;8.02;2.92;;;12.50;99.90;;;;;;7394914;19;20077;-79
2022/05/16 02:08:20;;;;;;;6.38;3.05;;;12.40;99.90;;;;;;7398245;19;20010;-79
2022/05/16 02:10:49;;;;;;;7.82;2.80;;;12.50;99.90;;;;;;7395752;19;20011;-79
2022/05/16 02:13:19;;;;;;;4.65;2.65;;;12.60;99.90;;;;;;7390231;19;20042;-79
2022/05/16 02:15:48;;;;;;;4.97;2.83;;;12.50;99.90;;;;;;7372920;19;20436;-79
2022/05/16 02:18:18;;;;;;;6.82;2.90;;;12.50;99.90;;;;;;7395722;19;20026;-79
2022/05/16 02:20:47;;;;;;;6.05;2.92;;;12.40;99.90;;;;;;7394577;19;20018;-79
2022/05/16 02:26:00;;;;;;;6.05;2.80;;;12.40;99.90;;;;;;7394040;19;20011;-79
2022/05/16 02:28:30;;;;;;;5.88;2.72;;;12.30;99.90;;;;;;7394669;19;20027;-79
2022/05/16 02:31:02;;;;;;;3.92;2.50;;;12.50;99.90;;;;;;7394797;19;20413;-78
2022/05/16 02:33:31;;;;;;;6.03;2.83;;;;;;;;;;7393701;19;20025;-78
2022/05/16 02:36:00;;;;;;;5.15;2.65;;;12.20;99.90;;;;;;7394405;19;20350;-79
2022/05/16 02:38:29;;;;;;;5.53;2.80;;;;;;;;;;7394313;19;20014;-78
2022/05/16 02:41:01;;;;;;;4.57;2.70;;;12.20;99.90;;;;;;7395333;19;20473;-79
2022/05/16 02:43:30;;;;;;;8.50;3.10;;;12.30;99.90;;;;;;7393747;19;20021;-78
2022/05/16 02:45:59;;;;;;;4.53;2.45;;;12.10;99.90;;;;;;7394447;19;20022;-79
2022/05/16 02:48:28;;;;;;;6.88;3.08;;;12.00;99.90;;;;;;7393438;19;20018;-79
2022/05/16 02:50:57;;;;;;;4.40;2.88;;;11.90;99.90;;;;;;7396137;19;20476;-79
2022/05/16 02:53:26;;;;;;;6.20;2.72;;;11.90;99.90;;;;;;7390079;19;20032;-79
2022/05/16 02:55:55;;;;;;;5.38;2.40;;;12.00;99.90;;;;;;7392414;19;20074;-79
2022/05/16 02:58:26;;;;;;;6.47;2.70;;;11.80;99.90;;;;;;7393360;19;20021;-79
2022/05/16 03:00:55;;;;;;;8.35;3.08;;;12.00;99.90;;;;;;7393794;19;20031;-79
2022/05/16 03:03:24;;;;;;;7.65;2.70;;;12.00;99.90;;;;;;7395880;19;20127;-79
2022/05/16 03:05:53;;;;;;;8.35;2.90;;;11.90;99.90;;;;;;7392858;19;20010;-79
2022/05/16 03:08:22;;;;;;;4.63;2.70;;;11.90;99.90;;;;;;7395952;19;20015;-79
2022/05/16 03:10:51;;;;;;;6.53;2.90;;;11.90;99.90;;;;;;7395543;19;20502;-79
2022/05/16 03:13:20;;;;;;;5.15;2.60;;;11.90;99.90;;;;;;7395459;19;20015;-79
2022/05/16 03:15:51;;;;;;;4.55;2.75;;;11.90;99.90;;;;;;7393117;19;20074;-79
2022/05/16 03:18:22;;;;;;;5.10;2.70;;;11.90;99.90;;;;;;7392981;19;20029;-79
2022/05/16 03:20:51;;;;;;;5.97;2.67;;;12.10;99.90;;;;;;7396057;19;20088;-79
2022/05/16 03:23:20;;;;;;;5.45;2.60;;;11.80;99.90;;;;;;7395261;19;20018;-79
2022/05/16 03:25:50;;;;;;;5.13;2.60;;;12.10;99.90;;;;;;7396200;19;20011;-79
2022/05/16 03:28:20;;;;;;;6.05;2.90;;;11.90;99.90;;;;;;7394614;19;20014;-79
2022/05/16 03:30:53;;;;;;;5.70;2.53;;;12.20;99.90;;;;;;7392852;19;20019;-78
2022/05/16 03:33:22;;;;;;;6.70;2.70;;;11.90;99.90;;;;;;7394805;19;20018;-79
2022/05/16 03:35:55;;;;;;;5.10;2.50;;;11.90;99.90;;;;;;7392755;19;20018;-80
2022/05/16 03:41:07;;;;;;;5.30;2.65;;;11.90;99.90;;;;;;7391235;19;20021;-78
2022/05/16 03:43:38;;;;;;;5.30;2.72;;;11.80;99.90;;;;;;7393183;19;20015;-78
2022/05/16 03:46:10;;;;;;;4.07;2.20;;;11.90;99.90;;;;;;7395100;19;20021;-79
2022/05/16 03:48:39;;;;;;;9.40;2.40;;;11.80;99.90;;;;;;7392395;19;20010;-79
2022/05/16 03:51:10;;;;;;;5.32;2.60;;;11.90;99.90;;;;;;7392487;19;20496;-79
2022/05/16 03:53:46;;;;;;;5.63;2.38;;;11.90;99.90;;;;;;7392443;19;20078;-79
2022/05/16 03:56:15;;;;;;;5.97;2.83;;;12.00;99.90;;;;;;7391361;19;20044;-79
2022/05/16 03:58:44;;;;;;;5.55;2.67;;;11.70;99.90;;;;;;7392961;19;20030;-79
2022/05/16 04:01:16;;;;;;;5.00;2.35;;;12.10;99.90;;;;;;7392111;19;20014;-79
2022/05/16 04:03:45;;;;;;;4.43;2.40;;;11.80;99.90;;;;;;7395183;19;20074;-79
2022/05/16 04:06:16;;;;;;;6.47;2.60;;;12.10;99.90;;;;;;7391174;19;20025;-79
2022/05/16 04:08:46;;;;;;;5.40;2.50;;;12.00;99.90;;;;;;7392070;19;20067;-79
2022/05/16 04:11:17;;;;;;;4.10;2.47;;;12.10;99.90;;;;;;7396167;19;20338;-79
2022/05/16 04:13:47;;;;;;;6.68;2.42;;;12.00;99.90;;;;;;7389397;19;20022;-79
2022/05/16 04:16:19;;;;;;;4.70;2.72;;;12.10;99.90;;;;;;7395517;19;20540;-79
2022/05/16 04:18:48;;;;;;;4.25;2.47;;;12.20;99.90;;;;;;7389073;19;20351;-78
2022/05/16 04:21:17;;;;;;;6.75;2.40;;;12.10;99.90;;;;;;7392003;19;20376;-79
2022/05/16 04:23:49;;;;;;;5.35;2.50;;;12.40;99.90;;;;;;7397743;19;20081;-79
2022/05/16 04:26:19;;;;;;;5.43;2.42;;;;;;;;;;7397927;19;20014;-79
2022/05/16 04:28:54;;;;;;;7.43;2.40;;;12.30;99.90;;;;;;7398284;19;20332;-79
2022/05/16 04:31:27;;;;;;;8.32;2.58;;;12.40;99.90;;;;;;7398140;19;20014;-79
2022/05/16 04:33:55;;;;;;;6.28;2.28;;;12.50;99.90;;;;;;7399619;19;20011;-79
2022/05/16 04:36:24;;;;;;;5.72;2.50;;;12.50;99.90;;;;;;7398889;19;20015;-79
2022/05/16 04:38:54;;;;;;;5.68;2.58;;;12.60;99.90;;;;;;7398177;19;20106;-79
2022/05/16 04:44:04;;;;;;;4.40;2.50;;;12.70;99.90;;;;;;7399127;19;20406;-79
2022/05/16 04:46:36;;;;;;;4.28;2.53;;;12.80;99.90;;;;;;7396268;19;20017;-79
2022/05/16 04:49:05;;;;;;;6.93;2.33;;;12.70;99.90;;;;;;7397485;19;20018;-78
2022/05/16 04:51:34;;;;;;;5.70;2.60;;;12.90;99.90;;;;;;7397277;19;20021;-78
2022/05/16 04:54:03;;;;;;;4.18;2.58;;;;;;;;;;7398994;19;20011;-78
2022/05/16 04:56:32;;;;;;;5.03;2.60;;;13.10;99.90;;;;;;7396465;19;20018;-78
2022/05/16 04:59:01;;;;;;;4.82;2.50;;;13.30;99.90;;;;;;7399023;19;20333;-78
2022/05/16 05:01:36;;;;;;;6.70;2.72;;;13.40;99.90;;;;;;7398305;19;20026;-78
2022/05/16 05:04:07;;;;;;;5.80;2.63;;;13.20;99.90;;;;;;7393192;19;20484;-78
2022/05/16 05:06:36;;;;;;;3.95;2.50;;;13.40;99.90;;;;;;7400579;19;20015;-78
2022/05/16 05:09:05;;;;;;;4.72;2.65;;;13.40;99.90;;;;;;7397866;19;20041;-78
2022/05/16 05:17:00;;;;;;;6.95;2.97;;;13.60;99.90;;;;;;7401004;19;20011;-78
2022/05/16 05:19:29;;;;;;;4.80;2.85;;;13.70;99.90;;;;;;7397032;19;20010;-79
2022/05/16 05:21:58;;;;;;;4.60;2.63;;;13.70;99.10;;;;;;7397626;19;20015;-78
2022/05/16 05:24:28;;;;;;;6.07;2.55;;;13.80;99.90;;;;;;7397245;19;20018;-78
2022/05/16 05:26:56;;;;;;;5.18;2.45;;;13.60;99.90;;;;;;7395566;19;20018;-79
2022/05/16 05:29:25;;;;;;;5.85;2.70;;;13.60;99.90;;;;;;7396344;19;20358;-79
2022/05/16 05:31:55;;;;;;;5.55;2.42;;;13.70;99.90;;;;;;7397143;19;20397;-78
2022/05/16 05:34:26;;;;;;;5.25;2.75;;;13.70;99.90;;;;;;7394989;19;20037;-79
2022/05/16 05:36:56;;;;;;;4.97;2.85;;;13.90;99.90;;;;;;7395907;19;20379;-78
2022/05/16 05:39:26;;;;;;;4.43;2.67;;;13.80;99.90;;;;;;7396124;19;20078;-78
2022/05/16 05:41:55;;;;;;;4.88;2.50;;;14.00;99.90;;;;;;7392742;19;20022;-79
2022/05/16 05:44:24;;;;;;;6.20;2.55;;;;;;;;;;7400099;19;20078;-78
2022/05/16 05:46:53;;;;;;;5.00;2.58;;;14.20;99.90;;;;;;7396829;19;20022;-78
2022/05/16 05:49:22;;;;;;;5.53;2.53;;;14.10;99.90;;;;;;7395748;19;20370;-78
2022/05/16 05:51:53;;;;;;;9.98;2.83;;;14.10;99.90;;;;;;7394454;19;20014;-79
2022/05/16 05:54:22;;;;;;;6.47;2.50;;;14.20;99.90;;;;;;7397201;19;20031;-78
2022/05/16 05:56:51;;;;;;;5.72;2.63;;;14.40;99.90;;;;;;7397947;19;20018;-78
2022/05/16 05:59:20;;;;;;;6.65;2.78;;;14.40;99.90;;;;;;7395653;19;20018;-79
2022/05/16 06:01:49;;;;;;;7.22;2.95;;;14.50;99.80;;;;;;7399162;19;20010;-78
2022/05/16 06:04:18;;;;;;;5.70;2.65;;;14.40;99.70;;;;;;7396638;19;20014;-78
2022/05/16 06:06:47;;;;;;;6.13;2.58;;;14.30;99.70;;;;;;7396226;19;20421;-78
2022/05/16 06:09:19;;;;;;;8.73;2.78;;;14.50;99.70;;;;;;7397941;19;20018;-79
2022/05/16 06:11:48;;;;;;;5.72;2.70;;;14.60;99.70;;;;;;7395279;19;20019;-78
2022/05/16 06:14:17;;;;;;;5.50;2.80;;;14.70;99.50;;;;;;7396047;19;20019;-78
2022/05/16 06:16:46;;;;;;;6.55;2.95;;;14.80;98.70;;;;;;7398220;19;20022;-78
2022/05/16 06:19:15;;;;;;;7.25;2.78;;;14.90;99.40;;;;;;7397043;19;20053;-78
2022/05/16 06:21:45;;;;;;;6.80;3.15;;;15.00;99.20;;;;;;7396112;19;20014;-78
2022/05/16 06:26:57;;;;;;;6.18;2.70;;;15.20;99.50;;;;;;7394312;19;20107;-78
2022/05/16 06:29:26;;;;;;;7.38;2.80;;;15.00;98.90;;;;;;7393938;19;20037;-78
2022/05/16 06:31:56;;;;;;;6.38;2.72;;;15.50;98.90;;;;;;7395839;19;20088;-78
2022/05/16 06:34:25;;;;;;;4.35;2.60;;;15.40;97.70;;;;;;7397488;19;20042;-78
2022/05/16 06:36:54;;;;;;;7.10;2.90;;;15.50;98.40;;;;;;7397766;19;20026;-78
2022/05/16 06:39:23;;;;;;;6.60;2.35;;;15.60;98.40;;;;;;7396405;19;20021;-78
2022/05/16 06:41:52;;;;;;;5.32;2.58;;;15.60;97.30;;;;;;7396237;19;20014;-78
2022/05/16 06:44:24;;;;;;;5.55;2.85;;;15.40;98.30;;;;;;7392003;19;20018;-79
2022/05/16 06:46:52;;;;;;;5.07;2.58;;;15.60;97.20;;;;;;7393115;19;20011;-78
2022/05/16 06:49:22;;;;;;;7.72;3.03;;;15.80;96.90;;;;;;7395458;19;20014;-78
2022/05/16 06:51:51;;;;;;;6.82;2.72;;;15.80;97.00;;;;;;7391730;19;20018;-78
2022/05/16 06:54:20;;;;;;;6.93;2.97;;;15.80;97.00;;;;;;7391773;19;20347;-78
2022/05/16 06:56:49;;;;;;;5.43;2.83;;;15.70;97.00;;;;;;7395289;19;20018;-78
2022/05/16 06:59:19;;;;;;;10.02;2.88;;;15.90;98.30;;;;;;7393424;19;20356;-78
2022/05/16 07:01:50;;;;;;;9.30;3.20;;;15.70;97.00;;;;;;7397665;19;20635;-78
2022/05/16 07:04:19;;;;;;;6.72;2.80;;;16.00;98.10;;;;;;7391172;19;20018;-78
2022/05/16 07:06:48;;;;;;;5.00;2.63;;;16.00;98.20;;;;;;7390447;19;20031;-78
2022/05/16 07:09:17;;;;;;;6.00;2.75;;;15.90;96.80;;;;;;7393061;19;20015;-78
2022/05/16 07:11:46;;;;;;;5.40;3.13;;;16.20;96.90;;;;;;7396435;19;20019;-78
2022/05/16 07:14:15;;;;;;;6.57;3.22;;;16.50;98.10;;;;;;7397767;19;20018;-78
2022/05/16 07:16:44;;;;;;;5.78;2.80;;;16.50;96.60;;;;;;7392861;19;20477;-78
2022/05/16 07:19:16;;;;;;;4.57;2.55;;;16.40;96.30;;;;;;7392636;19;20014;-78
2022/05/16 07:21:45;;;;;;;6.50;2.70;;;16.70;96.20;;;;;;7394104;19;20019;-79
2022/05/16 07:24:14;;;;;;;5.63;2.70;;;16.70;96.00;;;;;;7397200;19;20014;-79
2022/05/16 07:29:25;;;;;;;8.05;2.60;;;17.00;95.40;;;;;;7392639;19;20165;-79
2022/05/16 07:31:53;;;;;;;7.38;2.70;;;17.10;95.60;;;;;;7392688;19;20077;-79
2022/05/16 07:34:26;;;;;;;6.13;3.30;;;17.40;95.00;;;;;;7390634;19;20079;-79
2022/05/16 07:36:55;;;;;;;7.85;2.80;;;17.70;95.00;;;;;;7393715;19;20010;-79
2022/05/16 07:39:24;;;;;;;7.53;3.22;;;17.60;94.70;;;;;;7395096;19;20011;-78
2022/05/16 07:41:54;;;;;;;6.95;3.38;;;17.70;94.40;;;;;;7395145;19;20036;-79
2022/05/16 07:44:23;;;;;;;9.85;2.88;;;17.80;94.60;;;;;;7392276;19;20520;-78
2022/05/16 07:46:52;;;;;;;5.45;2.65;;;18.00;94.30;;;;;;7393570;19;20359;-78
2022/05/16 07:49:22;;;;;;;8.68;2.80;;;18.10;94.10;;;;;;7392668;19;20014;-79
2022/05/16 07:51:54;;;;;;;5.72;2.47;;;18.10;94.10;;;;;;7394313;19;20019;-78
2022/05/16 07:54:25;;;;;;;6.38;2.88;;;18.40;93.80;;;;;;7386524;19;20025;-78
2022/05/16 07:56:54;;;;;;;6.50;2.60;;;18.60;93.80;;;;;;7395290;19;20010;-78
2022/05/16 07:59:23;;;;;;;6.50;2.80;;;18.70;93.50;;;;;;7399105;19;20034;-78
2022/05/16 08:01:52;;;;;;;9.05;2.85;;;19.00;93.30;;;;;;7395693;19;20014;-79
2022/05/16 08:04:21;;;;;;;8.02;2.67;;;19.10;93.40;;;;;;7398324;19;20037;-78
2022/05/16 08:06:53;;;;;;;6.72;2.85;;;19.20;93.10;;;;;;7395068;19;20018;-78
2022/05/16 08:12:06;;;;;;;7.50;2.65;;;19.30;92.50;;;;;;7397071;19;20038;-78
2022/05/16 08:14:35;;;;;;;11.13;3.25;;;19.60;92.40;;;;;;7394412;19;20026;-79
2022/05/16 08:17:04;;;;;;;10.10;3.15;;;19.70;92.40;;;;;;7397471;19;20086;-78
2022/05/16 08:19:35;;;;;;;7.88;2.95;;;19.90;92.20;;;;;;7401593;19;20037;-79
2022/05/16 08:22:06;;;;;;;8.02;3.15;;;20.10;92.10;;;;;;7399466;19;20011;-78
2022/05/16 08:24:36;;;;;;;5.85;2.70;;;20.30;92.00;;;;;;7397113;19;20042;-79
2022/05/16 08:27:05;;;;;;;12.68;2.80;;;20.30;91.40;;;;;;7402416;19;20018;-79
2022/05/16 08:29:34;;;;;;;12.38;3.10;;;20.70;91.20;;;;;;7401952;19;20024;-79
2022/05/16 08:32:04;;;;;;;12.95;3.30;;;20.70;91.00;;;;;;7396898;19;20014;-78
2022/05/16 08:34:34;;;;;;;6.90;2.70;;;20.70;90.40;;;;;;7399464;19;20022;-79
2022/05/16 08:39:56;;;;;;;6.70;2.63;;;21.00;89.80;;;;;;7397211;19;20081;-79
2022/05/16 08:42:31;;;;;;;5.82;2.90;;;20.90;89.40;;;;;;7398363;19;20042;-79
2022/05/16 08:45:02;;;;;;;;;;;20.80;89.30;;;;;;7398249;19;20070;-78
2022/05/16 08:47:47;;;;;;;9.43;2.65;;;20.80;90.10;;;;;;7397631;19;19919;-79
2022/05/16 08:50:21;;;;;;;7.37;2.63;;;20.90;88.50;;;;;;7393834;19;20038;-79
2022/05/16 08:52:58;;;;;;;8.27;2.70;;;21.20;89.90;;;;;;7394995;19;20517;-79
2022/05/16 08:55:35;;;;;;;6.50;2.70;;;21.60;89.20;;;;;;7397857;19;20017;-79
2022/05/16 08:58:10;;;;;;;10.70;2.92;;;21.70;87.40;;;;;;7396962;19;20029;-78
2022/05/16 09:00:47;;;;;;;10.35;3.15;;;21.80;87.50;;;;;;7395058;19;20021;-79
2022/05/16 09:03:19;;;;;;;8.38;2.80;;;22.10;87.30;;;;;;7396871;19;20010;-79
2022/05/16 09:05:54;;;;;;;8.43;2.97;;;22.00;87.00;;;;;;7400381;19;20014;-79
2022/05/16 09:08:41;;;;;;;8.65;2.63;;;22.30;85.40;;;;;;7396848;19;20018;-79
2022/05/16 09:11:12;;;;;;;10.43;3.08;;;22.40;83.90;;;;;;7396900;19;20014;-79
2022/05/16 09:13:57;;;;;;;8.48;3.00;;;22.50;84.00;;;;;;7398134;19;20014;-79
2022/05/16 09:16:41;;;;;;;8.82;2.75;;;22.80;82.00;;;;;;7396280;19;20015;-79
2022/05/16 09:19:34;;;;;;;8.30;2.42;;;22.70;82.20;;;;;;7395125;19;20014;-79
2022/05/16 09:22:11;;;;;;;11.25;3.25;;;21.10;80.90;;;;;;7397048;19;20505;-79
2022/05/16 09:24:49;;;;;;;8.00;2.45;;;22.60;82.80;;;;;;7394351;19;20353;-79
2022/05/16 09:30:06;;;;;;;10.65;2.85;;;23.10;82.30;;;;;;7390921;19;20031;-78
2022/05/16 09:32:40;;;;;;;9.85;3.00;;;23.50;81.20;;;;;;7396288;19;20022;-78
2022/05/16 09:35:21;;;;;;;6.55;2.90;;;23.60;80.20;;;;;;7396987;19;20006;-78
2022/05/16 09:37:57;;;;;;;6.85;2.90;;;23.70;79.60;;;;;;7397063;19;20015;-77
2022/05/16 09:40:37;;;;;;;9.10;2.95;;;24.10;78.00;;;;;;7390438;19;20171;-77
2022/05/16 09:43:10;;;;;;;6.57;2.55;;;24.40;78.30;;;;;;7394905;19;20038;-78
2022/05/16 09:45:40;;;;;;;6.25;2.72;;;24.30;78.10;;;;;;7394145;19;20449;-77
2022/05/16 09:48:19;;;;;;;5.55;2.70;;;24.30;77.00;;;;;;7394570;19;20456;-77
2022/05/16 09:50:59;;;;;;;7.00;2.75;;;24.30;74.80;;;;;;7394542;19;20010;-77
2022/05/16 09:53:34;;;;;;;5.78;2.75;;;24.20;74.00;;;;;;7395490;19;20018;-78
2022/05/16 09:56:09;;;;;;;7.17;2.60;;;24.30;75.40;;;;;;7392514;19;20015;-78
2022/05/16 09:58:50;;;;;;;9.95;3.00;;;24.30;73.50;;;;;;7393709;19;20025;-78
2022/05/16 10:01:34;;;;;;;5.63;2.45;;;24.70;74.50;;;;;;7395840;19;20025;-79
2022/05/16 10:04:12;;;;;;;7.80;2.60;;;25.20;73.60;;;;;;7389320;19;20041;-79
2022/05/16 10:06:44;;;;;;;9.43;3.10;;;25.30;71.90;;;;;;7392057;19;20050;-79
2022/05/16 10:09:16;;;;;;;6.40;2.60;;;25.60;69.00;;;;;;7392234;19;20015;-79
2022/05/16 10:11:52;;;;;;;5.60;2.80;;;25.70;70.40;;;;;;7391621;19;20029;-78
2022/05/16 10:14:22;;;;;;;7.15;3.10;;;26.10;69.60;;;;;;7396683;19;20038;-79
2022/05/16 10:16:53;;;;;;;7.95;3.13;;;26.00;68.90;;;;;;7397176;19;20017;-80
2022/05/16 10:19:28;;;;;;;8.30;2.80;;;25.90;66.60;;;;;;7392843;19;20014;-79
2022/05/16 10:22:01;;;;;;;8.10;2.63;;;25.80;67.30;;;;;;7395038;19;20026;-78
2022/05/16 10:24:36;;;;;;;10.35;2.85;;;26.10;66.30;;;;;;7393782;19;20788;-79
2022/05/16 10:27:11;;;;;;;9.45;2.58;;;26.30;67.20;;;;;;7394804;19;20010;-79
2022/05/16 10:29:42;;;;;;;10.68;2.83;;;26.90;67.40;;;;;;7394112;19;20356;-79
2022/05/16 10:35:02;;;;;;;7.40;2.95;;;27.60;64.20;;;;;;7395219;19;20031;-79
2022/05/16 10:37:35;;;;;;;5.30;2.38;;;27.80;60.60;;;;;;7391413;19;20010;-79
2022/05/16 10:40:10;;;;;;;9.30;2.85;;;28.10;61.30;;;;;;7392233;19;20504;-79
2022/05/16 10:42:51;;;;;;;7.13;2.47;;;28.20;59.30;;;;;;7394725;19;20015;-79
2022/05/16 10:45:22;;;;;;;10.13;2.88;;;27.90;57.00;;;;;;7392937;19;20027;-79
2022/05/16 10:47:59;;;;;;;7.35;2.88;;;27.80;58.60;;;;;;7391275;19;20010;-79
2022/05/16 10:50:31;;;;;;;7.50;2.80;;;27.70;58.70;;;;;;7395481;19;20018;-80
2022/05/16 10:53:05;;;;;;;8.07;2.90;;;27.70;59.10;;;;;;7391472;19;20021;-80
2022/05/16 10:55:56;;;;;;;9.13;3.10;;;27.60;58.30;;;;;;7395789;19;20014;-80
2022/05/16 10:58:41;;;;;;;5.90;3.13;;;28.00;59.30;;;;;;7392081;19;20019;-80
2022/05/16 11:01:14;;;;;;;7.78;2.63;;;28.80;56.50;;;;;;7392986;19;20015;-80
2022/05/16 11:04:17;;;;;;;7.60;2.60;;;29.50;53.40;;;;;;7393779;19;20011;-81
2022/05/16 11:07:08;;;;;;;4.85;2.35;;;29.80;51.10;;;;;;7390243;19;20015;-81
2022/05/16 11:09:46;;;;;;;11.23;2.67;;;30.60;52.30;;;;;;7388637;19;20034;-81
2022/05/16 11:12:20;;;;;;;6.43;3.00;;;30.60;48.90;;;;;;7391685;19;20022;-81
2022/05/16 11:15:00;;;;;;;5.43;2.67;;;30.00;50.30;;;;;;7392768;19;20014;-81
2022/05/16 11:17:41;;;;;;;9.30;3.08;;;29.70;51.60;;;;;;7392357;19;20007;-80
2022/05/16 11:20:15;;;;;;;8.48;2.72;;;29.80;52.20;;;;;;7390085;19;20026;-81
2022/05/16 11:22:47;;;;;;;7.93;2.60;;;29.70;51.60;;;;;;7394066;19;20390;-81
2022/05/16 11:25:19;;;;;;;6.38;2.80;;;29.80;51.90;;;;;;7388831;19;20472;-80
2022/05/16 11:28:00;;;;;;;10.25;2.97;;;29.50;50.10;;;;;;7394242;19;20018;-80
2022/05/16 11:30:42;;;;;;;8.50;3.22;;;29.20;50.40;;;;;;7393527;19;20070;-80
2022/05/16 11:33:25;;;;;;;7.45;3.10;;;29.20;48.80;;;;;;7400532;19;20363;-81
2022/05/16 11:36:01;;;;;;;9.13;2.78;;;29.20;49.40;;;;;;7399352;19;20038;-80
2022/05/16 11:38:59;;;;;;;11.00;2.85;;;29.10;51.80;;;;;;7397384;19;20022;-80
2022/05/16 11:41:45;;;;;;;4.47;2.50;;;29.20;48.70;;;;;;7394076;19;20247;-80
2022/05/16 11:44:27;;;;;;;5.10;2.70;;;29.20;47.80;;;;;;7383219;19;20499;-83
2022/05/16 11:47:05;;;;;;;6.85;2.70;;;29.30;50.40;;;;;;7398357;19;20015;-81
2022/05/16 11:49:41;;;;;;;7.85;2.53;;;29.20;48.90;;;;;;7397666;19;20015;-81
2022/05/16 11:52:28;;;;;;;6.25;2.60;;;29.00;50.30;;;;;;7396995;19;20483;-81
2022/05/16 11:55:02;;;;;;;8.40;3.13;;;29.30;49.10;;;;;;7401052;19;20017;-81
2022/05/16 12:00:37;;;;;;;8.02;2.47;;;29.20;49.80;;;;;;7387544;19;20015;-81
2022/05/16 12:03:19;;;;;;;5.05;2.50;;;29.20;50.10;;;;;;7399625;19;20029;-81
2022/05/16 12:05:52;;;;;;;8.35;3.17;;;28.80;51.30;;;;;;7396774;19;20027;-81
2022/05/16 12:08:46;;;;;;;5.45;3.05;;;28.70;51.20;;;;;;7399649;19;20006;-81
2022/05/16 12:11:23;;;;;;;7.70;2.90;;;28.50;50.80;;;;;;7399634;19;20022;-80
2022/05/16 12:14:13;;;;;;;7.13;2.88;;;28.40;53.40;;;;;;7396849;19;20450;-80
2022/05/16 12:17:02;;;;;;;6.10;2.80;;;28.10;52.00;;;;;;7385322;19;20472;-80
2022/05/16 12:19:37;;;;;;;5.68;2.50;;;27.70;54.20;;;;;;7395178;19;20115;-80
2022/05/16 12:22:09;;;;;;;8.37;2.93;;;27.20;54.50;;;;;;7388259;19;20014;-81
2022/05/16 12:25:04;;;;;;;10.75;2.90;;;26.90;55.20;;;;;;7388045;19;20015;-81
2022/05/16 12:27:38;;;;;;;7.30;2.50;;;26.70;56.20;;;;;;7380171;19;20026;-81
2022/05/16 12:30:10;;;;;;;6.55;2.80;;;26.70;56.20;;;;;;7375037;19;20038;-81
2022/05/16 12:33:01;;;;;;;6.25;2.63;;;26.50;56.80;;;;;;7397880;19;20028;-80
2022/05/16 12:35:46;;;;;;;7.55;2.83;;;26.40;58.20;;;;;;7398462;19;20086;-81
2022/05/16 12:38:18;;;;;;;5.43;2.92;;;26.40;58.10;;;;;;7401368;19;20015;-80
2022/05/16 12:41:38;;;;;;;6.90;3.33;;;26.40;60.00;;;;;;7399497;19;20098;-80
2022/05/16 12:44:20;;;;;;;6.93;2.80;;;26.20;62.30;;;;;;7396718;19;20030;-80
2022/05/16 12:47:02;;;;;;;7.47;2.90;;;25.70;63.80;;;;;;7398788;19;20021;-80
2022/05/16 12:49:59;;;;;;;7.78;2.78;;;25.70;62.70;;;;;;7397020;19;20074;-80
2022/05/16 12:53:11;;;;;;;10.20;3.55;;;25.50;64.10;;;;;;7397857;19;20114;-80
2022/05/16 12:55:56;;;;;;;8.05;3.72;;;25.50;65.60;;;;;;7397112;19;20011;-80
2022/05/16 12:58:29;;;;;;;6.47;3.63;;;25.40;65.70;;;;;;7397504;19;20011;-80
2022/05/16 13:01:13;;;;;;;6.57;3.35;;;25.40;70.30;;;;;;7396402;19;20037;-80
2022/05/16 13:03:57;;;;;;;9.45;3.38;;;25.00;71.20;;;;;;7399026;19;20032;-81
2022/05/16 13:06:49;;;;;;;9.50;3.90;;;24.80;71.20;;;;;;7399550;19;20015;-81
2022/05/16 13:09:43;;;;;;;7.82;3.78;;;24.90;72.30;;;;;;7396998;19;20086;-82
2022/05/16 13:12:23;;;;;;;8.98;3.72;;;24.90;74.30;;;;;;7396944;19;20366;-80
2022/05/16 13:15:04;;;;;;;7.20;3.50;;;24.80;73.50;;;;;;7397443;19;20038;-80
2022/05/16 13:17:36;;;;;;;5.72;3.40;;;24.80;74.30;;;;;;7397149;19;20021;-80
2022/05/16 13:20:10;;;;;;;10.10;4.72;;;25.00;75.10;;;;;;7394279;19;20015;-80
2022/05/16 13:22:42;;;;;;;8.70;3.75;;;25.30;75.30;;;;;;7398981;19;20548;-80
2022/05/16 13:25:15;;;;;;;9.07;3.50;;;25.30;73.80;;;;;;7399566;19;20489;-81
2022/05/16 13:30:34;;;;;;;10.88;3.95;;;26.10;74.20;;;;;;7392869;19;20424;-80
2022/05/16 13:33:03;;;;;;;8.80;3.75;;;26.10;71.10;;;;;;7400149;19;20123;-80
2022/05/16 13:35:36;;;;;;;7.85;3.67;;;25.90;72.00;;;;;;7397190;19;20497;-81
2022/05/16 13:38:06;;;;;;;10.63;4.43;;;26.30;72.40;;;;;;7399912;19;20054;-81
2022/05/16 13:40:40;;;;;;;6.43;3.58;;;25.90;72.70;;;;;;7398980;19;20041;-81
2022/05/16 13:43:18;;;;;;;10.60;3.60;;;25.70;74.10;;;;;;7395899;19;20018;-81
2022/05/16 13:45:47;;;;;;;8.93;3.90;;;25.60;73.40;;;;;;7395819;19;20498;-80
2022/05/16 13:48:19;;;;;;;9.10;3.90;;;25.50;73.30;;;;;;7395770;19;20015;-80
2022/05/16 13:50:50;;;;;;;8.05;3.67;;;25.80;72.60;;;;;;7395643;19;20026;-80
2022/05/16 13:53:22;;;;;;;11.32;4.57;;;25.50;72.00;;;;;;7395110;19;20042;-80
2022/05/16 13:55:56;;;;;;;9.80;4.45;;;25.70;74.20;;;;;;7394505;19;20035;-80
2022/05/16 13:58:28;;;;;;;10.23;4.35;;;25.30;73.20;;;;;;7395611;19;20018;-80
2022/05/16 14:01:14;;;;;;;11.15;4.18;;;25.40;73.70;;;;;;7397855;19;20014;-80
2022/05/16 14:03:46;;;;;;;8.32;4.60;;;25.60;74.90;;;;;;7396227;19;20027;-80